createdAt,value
2022-08-25T00:00:39.799Z,100172.22
2022-08-25T00:02:59.817Z,100171.19
2022-08-25T00:05:04.612Z,100162.13
2022-08-25T00:05:55.189Z,100164.63
2022-08-25T00:06:44.711Z,100161.94
2022-08-25T00:07:44.960Z,100160.28
2022-08-25T00:08:51.744Z,100166.63
2022-08-25T00:13:40.389Z,100169.47
2022-08-25T00:14:39.417Z,100164.97
2022-08-25T00:15:36.066Z,100173.03
2022-08-25T00:16:43.871Z,100174.00
2022-08-25T00:20:08.085Z,100172.47
2022-08-25T00:20:56.854Z,100173.50
2022-08-25T00:21:45.236Z,100169.97
2022-08-25T00:22:35.104Z,100167.63
2022-08-25T00:23:32.009Z,100170.97
2022-08-25T00:31:24.934Z,100176.97
2022-08-25T00:33:40.603Z,100176.66
2022-08-25T00:38:00.013Z,100172.59
2022-08-25T00:38:52.847Z,100166.41
2022-08-25T00:39:47.471Z,100173.31
2022-08-25T00:44:11.526Z,100179.00
2022-08-25T00:45:03.475Z,100177.31
2022-08-25T00:45:55.219Z,100176.97
2022-08-25T00:46:46.197Z,100176.66
2022-08-25T00:47:47.412Z,100176.00
2022-08-25T00:48:45.561Z,100179.66
2022-08-25T00:49:37.658Z,100172.44
2022-08-25T00:50:32.105Z,100182.34
2022-08-25T00:51:23.643Z,100174.47
2022-08-25T00:52:12.252Z,100181.50
2022-08-25T00:53:05.677Z,100182.66
2022-08-25T00:55:09.827Z,100179.00
2022-08-25T00:55:59.237Z,100179.16
2022-08-25T00:56:39.633Z,100181.84
2022-08-25T00:57:34.463Z,100178.28
2022-08-25T01:00:06.660Z,100170.25
2022-08-25T01:01:02.355Z,100182.66
2022-08-25T01:01:49.823Z,100183.66
2022-08-25T01:02:40.480Z,100184.66
2022-08-25T01:03:25.279Z,100182.97
2022-08-25T01:04:19.932Z,100181.16
2022-08-25T01:05:07.581Z,100176.63
2022-08-25T01:05:58.014Z,100177.63
2022-08-25T01:06:50.955Z,100175.97
2022-08-25T01:07:40.040Z,100172.41
2022-08-25T01:08:39.036Z,100179.63
2022-08-25T01:09:34.732Z,100173.44
2022-08-25T01:10:26.046Z,100174.25
2022-08-25T01:11:29.810Z,100172.56
2022-08-25T01:13:50.425Z,100170.91
2022-08-25T01:14:33.519Z,100167.22
2022-08-25T01:15:20.265Z,100169.88
2022-08-25T01:16:03.183Z,100174.25
2022-08-25T01:16:54.600Z,100164.53
2022-08-25T01:17:44.811Z,100162.72
2022-08-25T01:18:35.490Z,100165.53
2022-08-25T01:19:23.045Z,100166.38
2022-08-25T01:20:07.281Z,100172.56
2022-08-25T01:20:55.474Z,100170.75
2022-08-25T01:21:52.385Z,100165.38
2022-08-25T01:22:45.479Z,100167.22
2022-08-25T01:23:50.170Z,100161.84
2022-08-25T01:24:46.791Z,100169.72
2022-08-25T01:27:17.183Z,100169.88
2022-08-25T01:28:10.046Z,100169.88
2022-08-25T01:28:58.519Z,100169.88
2022-08-25T01:29:44.153Z,100167.38
2022-08-25T01:30:29.795Z,100174.59
2022-08-25T01:31:23.701Z,100175.56
2022-08-25T01:32:06.323Z,100169.53
2022-08-25T01:32:52.255Z,100168.53
2022-08-25T01:33:44.864Z,100177.25
2022-08-25T01:34:30.854Z,100172.88
2022-08-25T01:35:19.033Z,100177.25
2022-08-25T01:36:05.737Z,100166.53
2022-08-25T01:36:54.967Z,100170.03
2022-08-25T01:37:44.949Z,100171.91
2022-08-25T01:38:42.309Z,100173.59
2022-08-25T01:39:36.276Z,100173.75
2022-08-25T01:41:27.718Z,100179.94
2022-08-25T01:42:12.568Z,100173.59
2022-08-25T01:43:15.291Z,100178.25
2022-08-25T01:44:23.419Z,100174.91
2022-08-25T01:46:28.255Z,100181.94
2022-08-25T01:47:28.969Z,100171.22
2022-08-25T01:50:37.761Z,100172.38
2022-08-25T01:51:24.533Z,100169.84
2022-08-25T01:52:21.572Z,100177.91
2022-08-25T01:53:13.541Z,100174.38
2022-08-25T01:54:05.837Z,100172.53
2022-08-25T01:54:57.672Z,100173.56
2022-08-25T01:55:55.135Z,100167.16
2022-08-25T02:03:29.860Z,100172.69
2022-08-25T02:05:36.215Z,100175.53
2022-08-25T02:06:29.739Z,100170.00
2022-08-25T02:07:20.886Z,100175.53
2022-08-25T02:08:15.017Z,100170.16
2022-08-25T02:09:05.981Z,100171.03
2022-08-25T02:09:59.028Z,100172.84
2022-08-25T02:10:59.044Z,100172.19
2022-08-25T02:11:51.438Z,100165.81
2022-08-25T02:12:51.219Z,100170.00
2022-08-25T02:13:54.372Z,100169.34
2022-08-25T02:14:55.342Z,100163.13
2022-08-25T02:15:52.105Z,100173.88
2022-08-25T02:16:51.939Z,100170.16
2022-08-25T02:25:30.040Z,100160.78
2022-08-25T02:26:16.770Z,100165.97
2022-08-25T02:27:00.580Z,100167.81
2022-08-25T02:27:45.931Z,100162.28
2022-08-25T02:28:31.521Z,100162.28
2022-08-25T02:29:23.099Z,100159.75
2022-08-25T02:30:06.577Z,100163.31
2022-08-25T02:31:01.546Z,100168.81
2022-08-25T02:31:48.209Z,100157.22
2022-08-25T02:32:39.966Z,100175.16
2022-08-25T02:33:29.869Z,100160.09
2022-08-25T02:35:24.609Z,100163.47
2022-08-25T02:36:17.840Z,100163.63
2022-08-25T02:37:06.776Z,100164.44
2022-08-25T02:37:53.522Z,100166.13
2022-08-25T02:38:38.880Z,100158.09
2022-08-25T02:39:30.558Z,100159.75
2022-08-25T02:40:20.883Z,100154.41
2022-08-25T02:41:17.714Z,100158.09
2022-08-25T02:42:17.708Z,100157.22
2022-08-25T02:44:45.559Z,100159.75
2022-08-25T02:45:37.559Z,100155.25
2022-08-25T02:46:29.753Z,100156.41
2022-08-25T02:47:17.750Z,100160.78
2022-08-25T02:48:11.702Z,100161.75
2022-08-25T02:48:57.295Z,100159.09
2022-08-25T02:49:51.570Z,100159.09
2022-08-25T02:50:41.567Z,100159.75
2022-08-25T02:51:26.315Z,100160.63
2022-08-25T02:52:12.208Z,100161.75
2022-08-25T02:52:56.684Z,100156.41
2022-08-25T02:53:41.589Z,100159.91
2022-08-25T02:54:39.096Z,100157.22
2022-08-25T02:55:31.362Z,100154.75
2022-08-25T02:56:29.144Z,100159.25
2022-08-25T02:57:31.284Z,100153.88
2022-08-25T03:05:59.507Z,100154.91
2022-08-25T03:06:56.836Z,100154.03
2022-08-25T03:07:45.146Z,100156.72
2022-08-25T03:08:27.463Z,100149.69
2022-08-25T03:09:20.178Z,100147.16
2022-08-25T03:10:05.881Z,100147.84
2022-08-25T03:10:52.058Z,100146.84
2022-08-25T03:11:38.939Z,100151.34
2022-08-25T03:12:25.538Z,100147.69
2022-08-25T03:13:10.754Z,100148.34
2022-08-25T03:14:02.105Z,100150.38
2022-08-25T03:14:54.323Z,100148.69
2022-08-25T03:15:47.470Z,100145.16
2022-08-25T03:16:40.603Z,100143.16
2022-08-25T03:17:29.750Z,100146.84
2022-08-25T03:18:20.605Z,100148.53
2022-08-25T03:19:10.328Z,100153.88
2022-08-25T03:20:01.920Z,100150.53
2022-08-25T03:20:48.321Z,100150.53
2022-08-25T03:21:35.924Z,100144.34
2022-08-25T03:22:25.968Z,100145.16
2022-08-25T03:23:21.866Z,100146.16
2022-08-25T03:27:27.396Z,100139.13
2022-08-25T03:28:05.363Z,100144.50
2022-08-25T03:28:42.326Z,100141.81
2022-08-25T03:29:20.473Z,100134.59
2022-08-25T03:29:57.942Z,100135.44
2022-08-25T03:30:35.181Z,100135.59
2022-08-25T03:31:12.291Z,100138.44
2022-08-25T03:31:49.982Z,100134.91
2022-08-25T03:32:27.193Z,100137.59
2022-08-25T03:33:04.334Z,100130.53
2022-08-25T03:33:42.161Z,100135.91
2022-08-25T03:34:20.296Z,100128.88
2022-08-25T03:34:58.056Z,100123.53
2022-08-25T03:35:35.968Z,100125.19
2022-08-25T03:36:13.516Z,100128.56
2022-08-25T03:36:51.628Z,100129.56
2022-08-25T03:37:30.511Z,100127.69
2022-08-25T03:38:08.543Z,100120.53
2022-08-25T03:38:46.364Z,100123.19
2022-08-25T03:39:24.103Z,100124.03
2022-08-25T03:40:01.730Z,100128.56
2022-08-25T03:40:39.339Z,100121.50
2022-08-25T03:41:28.089Z,100118.84
2022-08-25T03:42:10.120Z,100127.69
2022-08-25T03:42:52.973Z,100117.84
2022-08-25T03:43:36.744Z,100121.34
2022-08-25T03:44:22.130Z,100120.53
2022-08-25T03:45:03.387Z,100119.50
2022-08-25T03:45:43.915Z,100118.66
2022-08-25T03:46:23.091Z,100117.69
2022-08-25T03:47:00.210Z,100121.50
2022-08-25T03:47:36.766Z,100117.84
2022-08-25T03:48:13.594Z,100118.84
2022-08-25T03:48:51.015Z,100114.47
2022-08-25T03:49:28.902Z,100121.50
2022-08-25T03:50:08.063Z,100121.19
2022-08-25T03:50:50.763Z,100117.53
2022-08-25T03:51:41.289Z,100115.16
2022-08-25T03:52:26.073Z,100120.53
2022-08-25T03:53:05.043Z,100116.81
2022-08-25T03:53:42.708Z,100119.50
2022-08-25T03:54:20.048Z,100121.50
2022-08-25T03:54:57.929Z,100115.47
2022-08-25T03:55:36.672Z,100121.50
2022-08-25T03:56:14.157Z,100126.03
2022-08-25T03:56:52.428Z,100129.56
2022-08-25T03:57:31.386Z,100127.03
2022-08-25T03:58:08.956Z,100128.72
2022-08-25T03:58:46.765Z,100131.41
2022-08-25T03:59:24.574Z,100129.56
2022-08-25T04:00:02.342Z,100121.50
2022-08-25T04:00:40.321Z,100133.06
2022-08-25T04:01:18.776Z,100121.34
2022-08-25T04:01:57.810Z,100125.88
2022-08-25T04:02:35.348Z,100123.38
2022-08-25T04:03:16.696Z,100124.19
2022-08-25T04:04:02.691Z,100132.22
2022-08-25T04:04:51.419Z,100121.50
2022-08-25T04:05:35.021Z,100120.69
2022-08-25T04:06:12.790Z,100125.03
2022-08-25T04:06:51.708Z,100126.03
2022-08-25T04:07:29.947Z,100125.19
2022-08-25T04:08:08.201Z,100126.88
2022-08-25T04:08:46.049Z,100126.03
2022-08-25T04:09:24.395Z,100127.69
2022-08-25T04:10:02.447Z,100128.88
2022-08-25T04:10:40.355Z,100129.72
2022-08-25T04:11:19.822Z,100125.19
2022-08-25T04:11:58.986Z,100115.47
2022-08-25T04:12:37.284Z,100125.38
2022-08-25T04:13:15.399Z,100125.19
2022-08-25T04:13:53.771Z,100121.81
2022-08-25T04:14:32.334Z,100120.84
2022-08-25T04:15:09.289Z,100124.50
2022-08-25T04:15:47.792Z,100115.63
2022-08-25T04:16:35.105Z,100119.00
2022-08-25T04:17:24.500Z,100119.00
2022-08-25T04:18:01.730Z,100116.47
2022-08-25T04:18:39.289Z,100114.81
2022-08-25T04:19:16.682Z,100120.69
2022-08-25T04:19:53.832Z,100118.00
2022-08-25T04:20:31.165Z,100123.38
2022-08-25T04:21:08.268Z,100125.19
2022-08-25T04:21:45.387Z,100122.69
2022-08-25T04:22:23.632Z,100122.69
2022-08-25T04:23:00.931Z,100125.53
2022-08-25T04:23:38.623Z,100124.66
2022-08-25T04:24:16.495Z,100126.69
2022-08-25T04:24:54.363Z,100132.19
2022-08-25T04:25:32.231Z,100125.53
2022-08-25T04:26:18.500Z,100128.38
2022-08-25T04:26:56.791Z,100127.50
2022-08-25T04:27:33.785Z,100124.16
2022-08-25T04:28:11.946Z,100128.38
2022-08-25T04:28:50.730Z,100125.84
2022-08-25T04:29:31.858Z,100127.50
2022-08-25T04:30:12.466Z,100124.66
2022-08-25T04:30:52.137Z,100128.38
2022-08-25T04:31:33.582Z,100121.16
2022-08-25T04:32:14.900Z,100125.53
2022-08-25T04:33:05.177Z,100121.81
2022-08-25T04:33:48.327Z,100119.00
2022-08-25T04:34:30.767Z,100112.13
2022-08-25T04:35:17.296Z,100113.13
2022-08-25T04:36:00.183Z,100106.75
2022-08-25T04:36:37.148Z,100113.94
2022-08-25T04:37:15.357Z,100107.75
2022-08-25T04:37:52.300Z,100101.72
2022-08-25T04:38:30.308Z,100107.75
2022-08-25T04:39:07.936Z,100106.06
2022-08-25T04:39:45.262Z,100098.19
2022-08-25T04:40:28.978Z,100105.38
2022-08-25T04:41:05.956Z,100106.06
2022-08-25T04:41:43.781Z,100110.59
2022-08-25T04:42:21.511Z,100102.56
2022-08-25T04:42:59.834Z,100103.38
2022-08-25T04:43:38.243Z,100107.91
2022-08-25T04:44:16.917Z,100105.38
2022-08-25T04:44:54.989Z,100108.06
2022-08-25T04:45:33.022Z,100104.41
2022-08-25T04:46:12.559Z,100105.38
2022-08-25T04:46:53.118Z,100109.75
2022-08-25T04:47:31.003Z,100107.91
2022-08-25T04:48:12.065Z,100106.94
2022-08-25T04:48:52.364Z,100106.94
2022-08-25T04:49:34.229Z,100106.94
2022-08-25T04:50:19.282Z,100111.41
2022-08-25T04:51:07.989Z,100117.81
2022-08-25T04:51:53.610Z,100106.06
2022-08-25T04:52:40.730Z,100105.22
2022-08-25T04:53:25.127Z,100100.69
2022-08-25T04:54:05.462Z,100104.41
2022-08-25T04:54:45.521Z,100105.06
2022-08-25T04:55:23.812Z,100102.56
2022-08-25T04:56:04.025Z,100107.91
2022-08-25T04:56:40.974Z,100101.72
2022-08-25T04:57:19.279Z,100095.50
2022-08-25T04:57:57.691Z,100100.69
2022-08-25T04:58:34.917Z,100100.84
2022-08-25T04:59:13.540Z,100101.88
2022-08-25T04:59:51.994Z,100100.84
2022-08-25T05:00:29.779Z,100097.34
2022-08-25T05:01:06.999Z,100102.72
2022-08-25T05:01:43.855Z,100102.34
2022-08-25T05:02:20.872Z,100102.88
2022-08-25T05:02:58.256Z,100102.72
2022-08-25T05:03:35.324Z,100100.84
2022-08-25T05:04:14.687Z,100105.53
2022-08-25T05:05:06.561Z,100101.88
2022-08-25T05:05:54.414Z,100107.91
2022-08-25T05:06:41.743Z,100104.41
2022-08-25T05:07:27.060Z,100107.75
2022-08-25T05:08:09.195Z,100106.06
2022-08-25T05:08:47.030Z,100106.06
2022-08-25T05:09:32.635Z,100105.06
2022-08-25T05:10:09.885Z,100106.59
2022-08-25T05:10:47.346Z,100111.09
2022-08-25T05:11:24.023Z,100114.81
2022-08-25T05:12:01.625Z,100109.44
2022-08-25T05:12:38.351Z,100117.50
2022-08-25T05:13:15.743Z,100116.78
2022-08-25T05:13:53.592Z,100114.81
2022-08-25T05:14:30.614Z,100111.09
2022-08-25T05:15:08.385Z,100118.16
2022-08-25T05:15:46.139Z,100112.78
2022-08-25T05:16:24.035Z,100116.31
2022-08-25T05:17:01.635Z,100114.09
2022-08-25T05:17:39.422Z,100114.66
2022-08-25T05:18:18.009Z,100119.00
2022-08-25T05:18:57.014Z,100119.16
2022-08-25T05:19:35.030Z,100116.47
2022-08-25T05:20:12.311Z,100110.13
2022-08-25T05:20:50.482Z,100108.59
2022-08-25T05:21:28.357Z,100110.28
2022-08-25T05:22:06.141Z,100113.78
2022-08-25T05:22:44.524Z,100108.44
2022-08-25T05:23:25.310Z,100117.31
2022-08-25T05:24:08.794Z,100113.94
2022-08-25T05:24:53.155Z,100114.66
2022-08-25T05:25:41.381Z,100112.13
2022-08-25T05:26:20.426Z,100115.63
2022-08-25T05:27:04.677Z,100111.09
2022-08-25T05:27:50.939Z,100115.13
2022-08-25T05:28:34.735Z,100120.16
2022-08-25T05:29:20.367Z,100121.16
2022-08-25T05:29:57.779Z,100119.31
2022-08-25T05:30:34.916Z,100117.50
2022-08-25T05:31:12.259Z,100115.63
2022-08-25T05:31:50.967Z,100121.81
2022-08-25T05:32:27.338Z,100123.84
2022-08-25T05:33:04.942Z,100121.16
2022-08-25T05:33:42.718Z,100114.81
2022-08-25T05:34:20.901Z,100113.94
2022-08-25T05:34:58.112Z,100115.63
2022-08-25T05:35:35.534Z,100119.16
2022-08-25T05:36:12.591Z,100117.81
2022-08-25T05:36:49.834Z,100112.28
2022-08-25T05:37:27.363Z,100110.28
2022-08-25T05:38:05.334Z,100108.44
2022-08-25T05:38:42.527Z,100111.97
2022-08-25T05:39:21.901Z,100107.59
2022-08-25T05:39:59.870Z,100108.25
2022-08-25T05:40:38.054Z,100107.44
2022-08-25T05:41:15.620Z,100108.94
2022-08-25T05:41:54.370Z,100105.28
2022-08-25T05:42:31.930Z,100100.06
2022-08-25T05:43:10.151Z,100101.75
2022-08-25T05:43:47.562Z,100099.06
2022-08-25T05:44:26.030Z,100094.72
2022-08-25T05:45:04.330Z,100092.03
2022-08-25T05:45:41.892Z,100099.25
2022-08-25T05:46:19.717Z,100095.88
2022-08-25T05:46:57.426Z,100100.06
2022-08-25T05:47:35.210Z,100095.53
2022-08-25T05:48:12.808Z,100104.44
2022-08-25T05:48:47.976Z,100101.06
2022-08-25T05:49:27.700Z,100103.41
2022-08-25T05:50:07.687Z,100100.06
2022-08-25T05:50:53.302Z,100104.44
2022-08-25T05:51:34.827Z,100102.59
2022-08-25T05:52:10.062Z,100098.06
2022-08-25T05:52:49.376Z,100098.06
2022-08-25T06:54:28.743Z,100103.25
2022-08-25T06:55:07.777Z,100093.25
2022-08-25T06:55:52.981Z,100093.25
2022-08-25T06:56:41.189Z,100092.38
2022-08-25T06:57:17.476Z,100099.44
2022-08-25T06:57:58.358Z,100095.06
2022-08-25T08:54:20.748Z,100055.13
2022-08-25T08:55:06.452Z,100053.28
2022-08-25T08:55:48.334Z,100052.44
2022-08-25T08:56:33.364Z,100057.63
2022-08-25T08:57:17.403Z,100051.41
2022-08-25T08:57:53.392Z,100048.56
2022-08-25T08:58:39.312Z,100053.94
2022-08-25T08:59:29.972Z,100052.09
2022-08-25T09:00:15.332Z,100056.47
2022-08-25T09:00:57.278Z,100043.22
2022-08-25T10:14:44.689Z,99964.63
2022-08-25T10:15:29.932Z,99958.44
2022-08-25T10:16:35.588Z,99964.94
2022-08-25T10:17:27.437Z,99959.44
2022-08-25T11:24:29.905Z,99893.03
2022-08-25T11:25:06.915Z,99896.06
2022-08-25T11:25:50.843Z,99890.84
2022-08-25T11:26:31.040Z,99889.69
2022-08-25T11:27:04.638Z,99889.69
2022-08-25T11:27:56.146Z,99888.88
2022-08-25T11:28:30.990Z,99894.22
2022-08-25T11:29:04.086Z,99894.41
2022-08-25T11:29:35.535Z,99895.06
2022-08-25T11:30:09.386Z,99890.53
2022-08-25T11:30:40.953Z,99886.69
2022-08-25T11:31:12.438Z,99886.84
2022-08-25T11:31:48.345Z,99893.69
2022-08-25T11:32:24.259Z,99885.84
2022-08-25T11:32:55.624Z,99884.81
2022-08-25T11:33:27.660Z,99885.84
2022-08-25T11:33:59.269Z,99891.03
2022-08-25T11:34:31.240Z,99886.69
2022-08-25T11:35:04.701Z,99885.16
2022-08-25T11:35:40.266Z,99878.81
2022-08-25T11:36:19.899Z,99877.59
2022-08-25T11:36:56.549Z,99882.16
2022-08-25T11:37:28.424Z,99880.84
2022-08-25T11:38:26.118Z,99881.16
2022-08-25T11:39:15.224Z,99882.47
2022-08-25T11:40:09.060Z,99875.28
2022-08-25T11:40:55.126Z,99874.94
2022-08-25T11:41:44.855Z,99871.28
2022-08-25T11:42:26.154Z,99864.06
2022-08-25T11:43:11.047Z,99871.41
2022-08-25T11:43:48.901Z,99875.66
2022-08-25T11:44:32.528Z,99880.28
2022-08-25T11:45:08.916Z,99882.97
2022-08-25T11:45:58.136Z,99878.63
2022-08-25T11:46:42.618Z,99882.31
2022-08-25T11:47:21.230Z,99877.97
2022-08-25T11:48:03.888Z,99881.31
2022-08-25T11:49:41.053Z,99882.31
2022-08-25T11:50:30.191Z,99877.28
2022-08-25T11:51:12.237Z,99874.94
2022-08-25T11:51:44.584Z,99877.81
2022-08-25T11:52:35.212Z,99875.94
2022-08-25T11:53:18.003Z,99867.25
2022-08-25T11:54:16.936Z,99870.59
2022-08-25T11:54:48.363Z,99871.59
2022-08-25T11:55:23.152Z,99873.28
2022-08-25T11:55:55.607Z,99870.59
2022-08-25T11:56:40.168Z,99871.59
2022-08-25T11:57:24.322Z,99871.28
2022-08-25T11:58:14.937Z,99881.66
2022-08-25T11:58:49.929Z,99874.78
2022-08-25T11:59:40.028Z,99877.47
2022-08-25T12:00:20.431Z,99878.81
2022-08-25T12:00:52.097Z,99873.28
2022-08-25T12:01:41.632Z,99867.06
2022-08-25T12:02:27.978Z,99872.25
2022-08-25T12:03:01.507Z,99867.72
2022-08-25T12:03:33.207Z,99863.38
2022-08-25T12:04:31.575Z,99867.59
2022-08-25T12:05:10.918Z,99862.38
2022-08-25T12:06:01.016Z,99866.56
2022-08-25T12:06:32.659Z,99865.91
2022-08-25T12:07:07.186Z,99868.59
2022-08-25T12:07:47.718Z,99865.06
2022-08-25T12:08:39.367Z,99866.38
2022-08-25T12:09:10.783Z,99865.72
2022-08-25T12:09:51.502Z,99860.34
2022-08-25T12:10:23.684Z,99861.03
2022-08-25T12:10:55.100Z,99864.56
2022-08-25T12:11:38.516Z,99854.66
2022-08-25T12:12:29.332Z,99861.72
2022-08-25T12:13:02.645Z,99858.69
2022-08-25T12:13:43.216Z,99858.00
2022-08-25T12:14:16.185Z,99853.84
2022-08-25T12:14:47.639Z,99850.97
2022-08-25T12:15:26.032Z,99852.16
2022-08-25T12:15:58.781Z,99846.63
2022-08-25T12:16:35.901Z,99856.16
2022-08-25T12:17:16.406Z,99848.31
2022-08-25T12:18:07.476Z,99856.34
2022-08-25T12:18:45.895Z,99855.50
2022-08-25T12:19:36.083Z,99855.31
2022-08-25T12:20:07.768Z,99851.81
2022-08-25T12:20:54.409Z,99845.63
2022-08-25T12:21:29.930Z,99841.06
2022-08-25T12:22:03.361Z,99842.75
2022-08-25T12:22:35.345Z,99838.56
2022-08-25T12:23:06.878Z,99839.41
2022-08-25T12:24:13.727Z,99844.75
2022-08-25T12:25:17.833Z,99840.25
2022-08-25T12:25:50.005Z,99841.06
2022-08-25T12:26:24.831Z,99840.25
2022-08-25T12:26:59.154Z,99845.63
2022-08-25T12:27:33.553Z,99847.13
2022-08-25T12:28:09.383Z,99844.75
2022-08-25T12:28:47.091Z,99841.06
2022-08-25T12:29:24.296Z,99843.59
2022-08-25T12:30:05.071Z,99837.22
2022-08-25T12:30:45.327Z,99846.16
2022-08-25T12:31:30.233Z,99839.09
2022-08-25T12:32:22.307Z,99838.22
2022-08-25T12:33:08.384Z,99835.72
2022-08-25T12:33:40.318Z,99839.09
2022-08-25T12:34:17.279Z,99832.22
2022-08-25T12:34:54.431Z,99826.84
2022-08-25T12:35:29.591Z,99837.38
2022-08-25T12:36:04.867Z,99841.06
2022-08-25T12:36:36.367Z,99839.41
2022-08-25T12:37:12.292Z,99832.38
2022-08-25T12:37:57.066Z,99837.56
2022-08-25T12:38:30.345Z,99838.09
2022-08-25T12:39:08.819Z,99832.88
2022-08-25T12:39:44.133Z,99832.88
2022-08-25T12:40:20.057Z,99835.25
2022-08-25T12:41:00.464Z,99825.81
2022-08-25T12:41:33.788Z,99831.88
2022-08-25T12:42:06.183Z,99830.06
2022-08-25T12:42:37.974Z,99831.19
2022-08-25T12:43:28.876Z,99831.69
2022-08-25T12:44:28.646Z,99824.81
2022-08-25T12:45:12.783Z,99822.00
2022-08-25T12:45:45.153Z,99822.66
2022-08-25T12:46:19.929Z,99824.19
2022-08-25T12:47:01.950Z,99825.66
2022-08-25T12:47:35.793Z,99828.34
2022-08-25T12:48:26.209Z,99823.81
2022-08-25T12:49:28.902Z,99825.16
2022-08-25T12:50:18.797Z,99818.81
2022-08-25T12:50:55.385Z,99816.97
2022-08-25T12:51:27.327Z,99821.31
2022-08-25T12:52:00.725Z,99822.31
2022-08-25T12:52:32.252Z,99816.13
2022-08-25T12:53:07.897Z,99815.09
2022-08-25T12:53:49.831Z,99817.63
2022-08-25T12:54:23.877Z,99818.81
2022-08-25T12:54:56.475Z,99817.13
2022-08-25T12:55:28.119Z,99811.94
2022-08-25T12:56:06.599Z,99811.94
2022-08-25T12:56:41.094Z,99811.59
2022-08-25T12:57:25.073Z,99812.75
2022-08-25T12:58:00.985Z,99810.94
2022-08-25T12:59:00.844Z,99819.97
2022-08-25T12:59:36.785Z,99812.75
2022-08-25T13:00:20.141Z,99815.28
2022-08-25T13:01:03.766Z,99810.75
2022-08-25T13:01:57.844Z,99818.81
2022-08-25T13:02:53.409Z,99812.59
2022-08-25T13:04:26.301Z,99810.94
2022-08-25T13:05:16.672Z,99810.59
2022-08-25T13:05:48.044Z,99810.41
2022-08-25T13:06:26.431Z,99814.63
2022-08-25T13:07:13.225Z,99810.25
2022-08-25T13:07:57.112Z,99807.38
2022-08-25T13:08:36.987Z,99808.25
2022-08-25T13:09:11.196Z,99811.28
2022-08-25T13:10:01.125Z,99804.88
2022-08-25T13:10:44.282Z,99805.91
2022-08-25T13:11:17.700Z,99806.22
2022-08-25T13:11:53.867Z,99794.66
2022-08-25T13:12:35.125Z,99796.50
2022-08-25T13:13:09.268Z,99790.47
2022-08-25T13:13:43.570Z,99798.34
2022-08-25T13:14:18.654Z,99799.34
2022-08-25T13:14:53.576Z,99792.97
2022-08-25T13:15:28.306Z,99802.72
2022-08-25T13:16:03.796Z,99803.38
2022-08-25T13:16:36.063Z,99800.84
2022-08-25T13:17:07.758Z,99802.88
2022-08-25T13:17:41.236Z,99798.19
2022-08-25T13:18:13.601Z,99797.34
2022-08-25T13:18:45.172Z,99797.34
2022-08-25T13:19:23.041Z,99802.88
2022-08-25T13:20:14.726Z,99797.53
2022-08-25T13:20:47.184Z,99791.13
2022-08-25T13:21:28.174Z,99798.19
2022-08-25T13:22:01.449Z,99790.13
2022-08-25T13:22:33.567Z,99802.88
2022-08-25T13:23:05.133Z,99800.19
2022-08-25T13:23:37.517Z,99802.19
2022-08-25T13:24:15.143Z,99793.81
2022-08-25T13:24:47.677Z,99795.16
2022-08-25T13:25:23.138Z,99789.97
2022-08-25T13:25:58.627Z,99786.09
2022-08-25T13:26:32.072Z,99787.75
2022-08-25T13:27:05.597Z,99788.09
2022-08-25T13:27:38.965Z,99788.94
2022-08-25T13:28:11.186Z,99787.09
2022-08-25T13:28:43.091Z,99787.75
2022-08-25T13:29:23.052Z,99784.44
2022-08-25T13:29:56.176Z,99776.53
2022-08-25T13:30:32.244Z,99774.53
2022-08-25T13:31:24.077Z,99778.03
2022-08-25T13:31:57.026Z,99778.72
2022-08-25T13:32:35.247Z,99784.09
2022-08-25T13:33:17.192Z,99781.56
2022-08-25T13:33:54.917Z,99773.53
2022-08-25T13:34:35.026Z,99776.38
2022-08-25T13:35:14.974Z,99771.19
2022-08-25T13:35:52.410Z,99773.03
2022-08-25T13:36:27.018Z,99775.72
2022-08-25T13:37:25.606Z,99777.38
2022-08-25T13:38:16.145Z,99772.66
2022-08-25T13:38:49.016Z,99770.34
2022-08-25T13:39:45.461Z,99764.78
2022-08-25T13:40:15.089Z,99767.47
2022-08-25T13:40:49.515Z,99763.97
2022-08-25T13:41:22.946Z,99763.78
2022-08-25T13:42:00.907Z,99763.78
2022-08-25T13:42:36.515Z,99770.16
2022-08-25T13:43:09.223Z,99759.63
2022-08-25T13:43:40.963Z,99764.63
2022-08-25T13:44:13.370Z,99764.63
2022-08-25T13:44:51.908Z,99762.78
2022-08-25T13:45:28.865Z,99761.75
2022-08-25T13:46:03.709Z,99761.09
2022-08-25T13:46:35.595Z,99762.78
2022-08-25T13:47:11.223Z,99764.28
2022-08-25T13:47:45.206Z,99764.44
2022-08-25T13:48:31.272Z,99767.13
2022-08-25T13:49:03.735Z,99768.16
2022-08-25T13:49:35.416Z,99756.41
2022-08-25T13:50:22.593Z,99775.34
2022-08-25T13:50:54.435Z,99760.94
2022-08-25T13:51:31.027Z,99760.09
2022-08-25T13:52:03.303Z,99766.31
2022-08-25T13:52:35.690Z,99759.25
2022-08-25T13:53:11.357Z,99756.56
2022-08-25T13:53:47.457Z,99760.09
2022-08-25T13:54:29.804Z,99753.22
2022-08-25T13:55:01.197Z,99759.44
2022-08-25T13:55:38.166Z,99759.44
2022-08-25T13:56:40.742Z,99757.59
2022-08-25T13:57:18.596Z,99759.25
2022-08-25T13:57:50.039Z,99749.56
2022-08-25T13:58:39.353Z,99753.06
2022-08-25T13:59:27.066Z,99756.75
2022-08-25T14:00:04.027Z,99759.63
2022-08-25T14:00:43.586Z,99754.59
2022-08-25T14:01:50.538Z,99753.41
2022-08-25T14:02:41.626Z,99752.22
2022-08-25T14:03:34.381Z,99747.03
2022-08-25T14:04:24.716Z,99752.06
2022-08-25T14:04:56.140Z,99756.41
2022-08-25T14:05:31.943Z,99750.22
2022-08-25T14:06:16.796Z,99750.22
2022-08-25T14:06:48.335Z,99751.03
2022-08-25T14:07:20.339Z,99749.56
2022-08-25T14:08:09.041Z,99747.53
2022-08-25T14:08:47.397Z,99743.16
2022-08-25T14:09:28.258Z,99744.19
2022-08-25T14:09:59.907Z,99740.66
2022-08-25T14:10:32.910Z,99741.50
2022-08-25T14:11:28.201Z,99746.88
2022-08-25T14:11:59.579Z,99741.81
2022-08-25T14:12:44.943Z,99742.00
2022-08-25T14:13:31.239Z,99744.84
2022-08-25T14:14:04.057Z,99742.16
2022-08-25T14:14:36.680Z,99744.84
2022-08-25T14:15:13.112Z,99745.84
2022-08-25T14:15:44.643Z,99743.84
2022-08-25T14:16:19.937Z,99752.72
2022-08-25T14:16:54.189Z,99740.31
2022-08-25T14:17:38.693Z,99748.53
2022-08-25T14:18:21.455Z,99745.66
2022-08-25T14:18:58.891Z,99748.19
2022-08-25T14:19:30.895Z,99748.88
2022-08-25T14:20:02.617Z,99735.44
2022-08-25T14:20:34.156Z,99737.97
2022-08-25T14:21:10.335Z,99739.78
2022-08-25T14:21:42.752Z,99742.47
2022-08-25T14:22:14.200Z,99747.00
2022-08-25T14:22:45.711Z,99741.66
2022-08-25T14:23:20.978Z,99742.81
2022-08-25T14:23:53.394Z,99743.50
2022-08-25T14:24:24.919Z,99747.34
2022-08-25T14:24:56.840Z,99735.78
2022-08-25T14:25:28.344Z,99746.34
2022-08-25T14:26:01.979Z,99738.13
2022-08-25T14:26:33.401Z,99736.63
2022-08-25T14:27:04.924Z,99746.53
2022-08-25T14:27:42.080Z,99738.31
2022-08-25T14:28:28.316Z,99736.63
2022-08-25T14:28:59.749Z,99741.00
2022-08-25T14:29:31.277Z,99740.81
2022-08-25T14:30:07.277Z,99743.66
2022-08-25T14:30:46.619Z,99742.81